地図

経路データ

SID SEASON NUMBER BASIN SUBBASIN NAME ISO_TIME NATURE LAT LON WMO_WIND WMO_PRES WMO_AGENCY TRACK_TYPE DIST2LAND LANDFALL IFLAG USA_AGENCY USA_ATCF_ID USA_LAT USA_LON USA_RECORD USA_STATUS USA_WIND USA_PRES USA_SSHS USA_R34_NE USA_R34_SE USA_R34_SW USA_R34_NW USA_R50_NE USA_R50_SE USA_R50_SW USA_R50_NW USA_R64_NE USA_R64_SE USA_R64_SW USA_R64_NW USA_POCI USA_ROCI USA_RMW USA_EYE TOKYO_LAT TOKYO_LON TOKYO_GRADE TOKYO_WIND TOKYO_PRES TOKYO_R50_DIR TOKYO_R50_LONG TOKYO_R50_SHORT TOKYO_R30_DIR TOKYO_R30_LONG TOKYO_R30_SHORT TOKYO_LAND CMA_LAT CMA_LON CMA_CAT CMA_WIND CMA_PRES HKO_LAT HKO_LON HKO_CAT HKO_WIND HKO_PRES NEWDELHI_LAT NEWDELHI_LON NEWDELHI_GRADE NEWDELHI_WIND NEWDELHI_PRES NEWDELHI_CI NEWDELHI_DP NEWDELHI_POCI REUNION_LAT REUNION_LON REUNION_TYPE REUNION_WIND REUNION_PRES REUNION_TNUM REUNION_CI REUNION_RMW REUNION_R34_NE REUNION_R34_SE REUNION_R34_SW REUNION_R34_NW REUNION_R50_NE REUNION_R50_SE REUNION_R50_SW REUNION_R50_NW REUNION_R64_NE REUNION_R64_SE REUNION_R64_SW REUNION_R64_NW BOM_LAT BOM_LON BOM_TYPE BOM_WIND BOM_PRES BOM_TNUM BOM_CI BOM_RMW BOM_R34_NE BOM_R34_SE BOM_R34_SW BOM_R34_NW BOM_R50_NE BOM_R50_SE BOM_R50_SW BOM_R50_NW BOM_R64_NE BOM_R64_SE BOM_R64_SW BOM_R64_NW BOM_ROCI BOM_POCI BOM_EYE BOM_POS_METHOD BOM_PRES_METHOD NADI_LAT NADI_LON NADI_CAT NADI_WIND NADI_PRES WELLINGTON_LAT WELLINGTON_LON WELLINGTON_WIND WELLINGTON_PRES DS824_LAT DS824_LON DS824_STAGE DS824_WIND DS824_PRES TD9636_LAT TD9636_LON TD9636_STAGE TD9636_WIND TD9636_PRES TD9635_LAT TD9635_LON TD9635_WIND TD9635_PRES TD9635_ROCI NEUMANN_LAT NEUMANN_LON NEUMANN_CLASS NEUMANN_WIND NEUMANN_PRES MLC_LAT MLC_LON MLC_CLASS MLC_WIND MLC_PRES USA_GUST BOM_GUST BOM_GUST_PER REUNION_GUST REUNION_GUST_PER USA_SEAHGT USA_SEARAD_NE USA_SEARAD_SE USA_SEARAD_SW USA_SEARAD_NW STORM_SPEED STORM_DIR
2000313N18126 2000 105 WP MM NOT_NAMED 2000-11-07 12:00:00 TS 18.0000 125.500 main 337 306 O_____________ jtwc_wp WP322000 18.0000 125.500 TD 20 -1 10 314
2000313N18126 2000 105 WP MM NOT_NAMED 2000-11-07 15:00:00 TS 18.3351 125.140 main 295 265 P_____________ WP322000 18.3351 125.140 TD 20 -1 10 316
2000313N18126 2000 105 WP MM NOT_NAMED 2000-11-07 18:00:00 TS 18.7000 124.800 main 265 241 O_____________ jtwc_wp WP322000 18.7000 124.800 TD 20 -1 10 323
2000313N18126 2000 105 WP MM NOT_NAMED 2000-11-07 21:00:00 TS 19.1200 124.505 main 244 238 P_____________ WP322000 19.1200 124.505 TD 22 -1 10 332
2000313N18126 2000 105 WP MM NOT_NAMED 2000-11-08 00:00:00 TS 19.6000 124.300 main 249 249 O_____________ jtwc_wp WP322000 19.6000 124.300 TD 25 -1 11 345
2000313N18126 2000 105 WP MM NOT_NAMED 2000-11-08 03:00:00 TS 20.1424 124.212 main 275 275 P_____________ WP322000 20.1424 124.212 TD 25 -1 11 355
2000313N18126 2000 105 WP MM NOT_NAMED 2000-11-08 06:00:00 TS 20.7000 124.200 main 325 325 O_____________ jtwc_wp WP322000 20.7000 124.200 TD 25 -1 11 358
2000313N18126 2000 105 WP MM NOT_NAMED 2000-11-08 09:00:00 TS 21.2000 124.178 main 350 327 P_____________ WP322000 21.2000 124.178 TD 25 -1 10 1
2000313N18126 2000 105 WP MM NOT_NAMED 2000-11-08 12:00:00 TS 21.7000 124.200 main 327 304 O_____________ jtwc_wp WP322000 21.7000 124.200 TD 25 -1 10 3
2000313N18126 2000 105 WP MM NOT_NAMED 2000-11-08 15:00:00 TS 22.2049 124.241 main 304 300 P_____________ WP322000 22.2049 124.241 TD 25 -1 11 10
2000313N18126 2000 105 WP MM NOT_NAMED 2000-11-08 18:00:00 TS 22.8000 124.400 main 308 300 O_____________ jtwc_wp WP322000 22.8000 124.400 TD 25 -1 15 18
2000313N18126 2000 105 WP MM NOT_NAMED 2000-11-08 21:00:00 TS 23.5848 124.717 main 301 301 P_____________ WP322000 23.5848 124.717 TD 27 -1 18 27
2000313N18126 2000 105 WP MM NOT_NAMED 2000-11-09 00:00:00 TS 24.3600 125.260 main 339 339 O__O__________ jtwc_wp WP322000 24.4000 125.200 TD 30 -1 24.2000 125.500 TD 25 1004 18 39
2000313N18126 2000 105 WP MM NOT_NAMED 2000-11-09 03:00:00 TS 24.9690 125.941 main 392 392 P__P__________ WP322000 25.1026 125.812 TD 30 -1 24.7016 126.197 TD 25 1004 17 49
2000313N18126 2000 105 WP MM NOT_NAMED 2000-11-09 06:00:00 TS 25.4857 126.671 main 475 475 O__O__________ jtwc_wp WP322000 25.7000 126.500 TD 30 -1 25.2000 126.900 TD 25 1004 16 50
2000313N18126 2000 105 WP MM NOT_NAMED 2000-11-09 09:00:00 TS 26.0017 127.291 main 543 543 P__P__________ WP322000 26.2016 127.113 TD 30 -1 25.6019 127.648 TD 25 1004 15 48
2000313N18126 2000 105 WP MM NOT_NAMED 2000-11-09 12:00:00 TS 26.4800 127.920 main 570 501 O__O__________ jtwc_wp WP322000 26.6000 127.800 TD 30 -1 26.0000 128.400 TD 25 1004 15 52
2000313N18126 2000 105 WP MM NOT_NAMED 2000-11-09 15:00:00 TS 26.9449 128.655 main 497 439 P_____________ WP322000 26.9449 128.655 TD 27 -1 TD 17 64
2000313N18126 2000 105 WP MM NOT_NAMED 2000-11-09 18:00:00 TS 27.2000 129.600 main 437 402 O_____________ jtwc_wp WP322000 27.2000 129.600 TD 25 -1 17 76
2000313N18126 2000 105 WP MM NOT_NAMED 2000-11-09 21:00:00 TS 27.3720 130.543 main 402 392 P_____________ WP322000 27.3720 130.543 TD 25 -1 17 80
2000313N18126 2000 105 WP MM NOT_NAMED 2000-11-10 00:00:00 TS 27.5000 131.500 main 398 396 O_____________ jtwc_wp WP322000 27.5000 131.500 TD 25 -1 17 81
2000313N18126 2000 105 WP MM NOT_NAMED 2000-11-10 03:00:00 TS 27.6437 132.452 main 417 407 P_____________ WP322000 27.6437 132.452 TD 25 -1 17 80
2000313N18126 2000 105 WP MM NOT_NAMED 2000-11-10 06:00:00 TS 27.8000 133.400 main 442 O_____________ jtwc_wp WP322000 27.8000 133.400 TD 25 -1 17 79

デジタル台風データ・検索

IBTrACS Databaseについて

本データベースは、米国NOAAが公開する1842年以降の世界の熱帯低気圧のベストトラックデータアーカイブInternational Best Track Archive for Climate Stewardship (IBTrACS)を、ウェブで閲覧しやすい形式に変換したものです。

最終更新日:2021-10-08